Time;durP1;ratioP1;P1;durP2;ratioP2;P2;SDS_P1;SDS_P2;PMS_P1;PMS_P2;Temp;Humidity;BMP_temperature;BMP_pressure;BME280_temperature;BME280_humidity;BME280_pressure;Samples;Min_cycle;Max_cycle;Signal;HPM_P1;HPM_P2
2024/02/08 00:02:22;;;;;;;18.05;4.80;;;;;;;1.96;74.55;98919.56;5032186;28;20079;-51
2024/02/08 00:04:50;;;;;;;11.65;3.42;;;;;;;1.95;75.19;98917.84;5039353;28;20053;-54
2024/02/08 00:07:17;;;;;;;15.43;3.25;;;;;;;1.98;74.34;98911.91;5042615;28;20055;-50
2024/02/08 00:09:44;;;;;;;14.90;3.60;;;;;;;1.99;74.29;98927.25;5037939;28;20065;-52
2024/02/08 00:12:11;;;;;;;16.27;4.13;;;;;;;2.00;74.50;98931.56;5041923;28;20044;-52
2024/02/08 00:14:38;;;;;;;9.05;3.30;;;;;;;2.02;74.71;98929.88;5035551;28;20045;-55
2024/02/08 00:17:06;;;;;;;21.35;3.78;;;;;;;2.04;75.64;98925.66;5041273;28;20501;-54
2024/02/08 00:19:33;;;;;;;10.15;3.90;;;;;;;2.05;74.83;98914.59;5041222;28;20068;-52
2024/02/08 00:22:04;;;;;;;16.88;3.22;;;;;;;2.08;74.78;98912.91;5033227;28;20072;-58
2024/02/08 00:24:36;;;;;;;15.30;3.60;;;;;;;2.09;74.78;98919.75;5032068;28;20056;-54
2024/02/08 00:27:04;;;;;;;13.88;3.45;;;;;;;2.10;74.92;98911.25;5031622;28;20055;-55
2024/02/08 00:29:31;;;;;;;15.75;3.28;;;;;;;2.10;75.00;98907.00;5034473;28;20466;-52
2024/02/08 00:31:59;;;;;;;13.38;2.88;;;;;;;2.10;74.95;98906.13;5040990;28;20064;-56
2024/02/08 00:34:26;;;;;;;8.15;2.90;;;;;;;2.11;75.32;98912.94;5040656;28;20052;-53
2024/02/08 00:36:53;;;;;;;7.55;4.80;;;;;;;2.11;74.90;98902.72;5038912;28;20411;-55
2024/02/08 00:39:20;;;;;;;14.88;3.63;;;;;;;2.11;74.70;98893.38;5038116;28;20037;-57
2024/02/08 00:41:49;;;;;;;7.18;3.35;;;;;;;2.12;75.43;98884.00;5044043;28;20494;-51
2024/02/08 00:44:18;;;;;;;8.02;3.60;;;;;;;2.12;75.16;98886.56;5047434;28;20071;-56
2024/02/08 00:46:45;;;;;;;9.93;4.32;;;;;;;2.12;74.59;98869.53;5042384;28;20601;-55
2024/02/08 00:49:12;;;;;;;11.60;3.90;;;;;;;2.14;75.90;98861.91;5049513;28;20056;-52
2024/02/08 00:51:40;;;;;;;11.38;5.18;;;;;;;2.14;75.71;98867.88;5047155;28;20052;-51
2024/02/08 00:54:08;;;;;;;13.75;5.50;;;;;;;2.15;75.50;98866.16;5033163;28;20160;-56
2024/02/08 00:56:35;;;;;;;15.43;8.07;;;;;;;2.15;75.13;98876.38;5043940;28;20589;-55
2024/02/08 00:59:02;;;;;;;14.70;5.07;;;;;;;2.16;74.74;98870.47;5044182;28;20053;-53
2024/02/08 01:01:31;;;;;;;15.50;4.70;;;;;;;2.17;74.64;98870.44;5046860;28;20060;-50
2024/02/08 01:03:58;;;;;;;17.02;4.97;;;;;;;2.16;75.06;98861.06;5048101;28;20056;-54
2024/02/08 01:06:26;;;;;;;14.38;4.47;;;;;;;2.16;74.54;98858.53;5044032;28;20131;-50
2024/02/08 01:08:54;;;;;;;16.20;6.35;;;;;;;2.16;74.54;98844.91;5042796;28;20405;-53
2024/02/08 01:11:21;;;;;;;18.05;5.07;;;;;;;2.17;75.25;98849.16;5043902;28;20049;-55
2024/02/08 01:13:48;;;;;;;14.73;4.88;;;;;;;2.17;75.49;98852.56;5046519;28;20110;-58
2024/02/08 01:16:15;;;;;;;14.88;5.47;;;;;;;2.18;75.03;98854.31;5046421;28;20049;-51
2024/02/08 01:18:43;;;;;;;13.57;4.80;;;;;;;2.19;75.56;98860.25;5043882;28;20065;-51
2024/02/08 01:21:10;;;;;;;13.40;4.47;;;;;;;2.17;75.83;98852.56;5027948;28;20053;-53
2024/02/08 01:23:37;;;;;;;22.55;5.07;;;;;;;2.20;75.09;98854.31;5024075;28;20049;-56
2024/02/08 01:26:04;;;;;;;18.60;5.10;;;;;;;2.21;75.81;98853.47;5045331;28;20056;-51
2024/02/08 01:28:31;;;;;;;20.63;6.20;;;;;;;2.23;74.68;98840.72;5042776;28;20558;-52
2024/02/08 01:30:58;;;;;;;13.10;5.30;;;;;;;2.26;75.46;98831.38;5046388;28;20057;-51
2024/02/08 01:33:25;;;;;;;16.45;6.38;;;;;;;2.25;75.51;98819.44;5044974;28;20045;-54
2024/02/08 01:35:52;;;;;;;11.60;5.35;;;;;;;2.26;75.94;98810.09;5046243;28;20098;-53
2024/02/08 01:38:19;;;;;;;17.95;4.50;;;;;;;2.26;75.32;98810.94;5039928;28;20045;-52
2024/02/08 01:40:45;;;;;;;17.70;4.97;;;;;;;2.26;75.75;98815.22;5045121;28;20051;-53
2024/02/08 01:43:13;;;;;;;16.00;5.13;;;;;;;2.26;75.04;98800.72;5046503;28;20052;-49
2024/02/08 01:45:41;;;;;;;12.98;4.65;;;;;;;2.25;75.01;98799.00;5045717;28;20068;-54
2024/02/08 01:48:10;;;;;;;14.43;4.45;;;;;;;2.25;76.25;98793.91;5046496;28;20064;-53
2024/02/08 01:50:44;;;;;;;13.10;4.32;;;;;;;2.25;75.66;98785.38;5041132;28;20057;-57
2024/02/08 01:53:15;;;;;;;10.88;3.97;;;;;;;2.25;75.05;98778.56;5047361;28;20049;-54
2024/02/08 01:55:49;;;;;;;13.75;3.60;;;;;;;2.24;75.62;98784.53;5044634;28;20140;-48
2024/02/08 01:58:20;;;;;;;13.20;4.35;;;;;;;2.25;75.36;98793.03;5046094;28;20571;-53
2024/02/08 02:00:49;;;;;;;19.08;3.95;;;;;;;2.27;75.87;98787.09;5042956;28;20115;-56
2024/02/08 02:03:19;;;;;;;12.75;3.42;;;;;;;2.28;74.97;98782.84;5045013;28;20123;-55
2024/02/08 02:05:46;;;;;;;11.32;3.47;;;;;;;2.29;75.14;98780.31;5037042;28;20759;-49
2024/02/08 02:08:18;;;;;;;14.20;5.30;;;;;;;2.29;76.15;98777.75;5040119;28;20057;-54
2024/02/08 02:13:38;;;;;;;14.93;5.03;;;;;;;2.30;75.56;98770.97;5054709;28;20893;-55
2024/02/08 02:16:05;;;;;;;13.65;5.68;;;;;;;2.28;76.31;98763.28;4992739;28;20136;-56
2024/02/08 02:18:36;;;;;;;15.88;6.63;;;;;;;2.29;76.15;98767.53;5001146;28;20069;-50
2024/02/08 02:21:03;;;;;;;13.18;6.55;;;;;;;2.27;75.77;98760.72;4996620;28;20587;-55
2024/02/08 02:23:29;;;;;;;13.65;4.65;;;;;;;2.28;75.18;98755.63;4995835;28;20068;-56
2024/02/08 02:25:58;;;;;;;15.05;5.55;;;;;;;2.30;76.05;98745.41;4999654;28;20491;-54
2024/02/08 02:28:26;;;;;;;16.92;5.13;;;;;;;2.30;76.58;98741.13;5002146;28;20058;-55
2024/02/08 02:30:53;;;;;;;15.90;4.95;;;;;;;2.31;75.22;98747.13;4997993;28;20054;-51
2024/02/08 02:33:20;;;;;;;19.38;5.85;;;;;;;2.33;76.33;98734.34;4997006;28;20050;-50
2024/02/08 02:35:49;;;;;;;13.45;4.82;;;;;;;2.35;75.35;98732.66;5001623;28;20461;-55
2024/02/08 02:38:17;;;;;;;10.52;4.93;;;;;;;2.37;75.41;98711.41;5001070;28;20061;-58
2024/02/08 02:40:46;;;;;;;13.48;4.97;;;;;;;2.39;76.85;98713.94;4994792;28;20082;-51
2024/02/08 02:43:13;;;;;;;14.60;4.68;;;;;;;2.41;76.39;98712.28;5002709;28;20042;-58
2024/02/08 02:45:41;;;;;;;14.48;5.05;;;;;;;2.42;76.46;98708.88;4999839;28;20050;-58
2024/02/08 02:48:08;;;;;;;16.35;5.30;;;;;;;2.44;75.64;98712.31;5000576;28;20049;-56
2024/02/08 02:50:41;;;;;;;10.75;4.88;;;;;;;2.46;76.67;98702.94;4997004;28;20590;-53
2024/02/08 02:53:09;;;;;;;15.45;4.57;;;;;;;2.46;76.50;98692.72;5002081;28;20068;-57
2024/02/08 02:55:37;;;;;;;11.40;5.43;;;;;;;2.48;76.31;98692.75;5002680;28;20038;-52
2024/02/08 02:58:04;;;;;;;12.35;5.72;;;;;;;2.47;76.63;98684.22;5000870;28;20073;-54
2024/02/08 03:00:33;;;;;;;13.63;7.47;;;;;;;2.46;75.83;98682.50;5000819;28;20101;-51
2024/02/08 03:03:18;;;;;;;11.23;5.25;;;;;;;2.46;76.51;98681.66;5001364;28;20075;-52
2024/02/08 03:05:46;;;;;;;14.32;4.70;;;;;;;2.45;76.05;98693.56;5000604;28;20586;-55
2024/02/08 03:08:16;;;;;;;13.55;4.80;;;;;;;2.46;76.18;98681.66;4997635;28;20052;-56
2024/02/08 03:10:43;;;;;;;12.02;5.15;;;;;;;2.45;76.14;98673.13;4998046;28;20058;-52
2024/02/08 03:13:10;;;;;;;25.13;5.15;;;;;;;2.44;76.72;98650.97;5000679;28;20100;-55
2024/02/08 03:15:37;;;;;;;11.05;4.32;;;;;;;2.44;76.44;98638.19;4999694;28;20061;-57
2024/02/08 03:18:04;;;;;;;13.32;4.72;;;;;;;2.43;76.13;98628.78;5001258;28;20518;-55
2024/02/08 03:20:31;;;;;;;10.93;4.10;;;;;;;2.43;77.05;98621.13;4999327;28;20077;-56
2024/02/08 03:23:00;;;;;;;10.50;3.90;;;;;;;2.43;75.82;98624.56;4995078;28;20047;-53
2024/02/08 03:25:30;;;;;;;11.70;3.65;;;;;;;2.44;76.92;98640.75;4987934;28;20054;-53
2024/02/08 03:27:57;;;;;;;11.32;4.80;;;;;;;2.43;77.01;98639.88;4981741;28;20157;-54
2024/02/08 03:30:30;;;;;;;11.32;4.78;;;;;;;2.42;76.96;98638.19;4984980;28;20054;-52
2024/02/08 03:32:58;;;;;;;9.85;4.65;;;;;;;2.44;77.30;98631.38;4977289;28;20065;-55
2024/02/08 03:35:27;;;;;;;10.88;4.13;;;;;;;2.47;76.67;98630.56;4985467;28;20762;-49
2024/02/08 03:37:55;;;;;;;12.07;4.00;;;;;;;2.50;76.74;98619.50;4984776;28;20069;-56
2024/02/08 03:40:25;;;;;;;11.23;4.38;;;;;;;2.54;77.02;98606.72;4986981;28;20058;-55
2024/02/08 03:42:53;;;;;;;8.13;4.07;;;;;;;2.55;76.67;98600.78;4982614;28;20490;-56
2024/02/08 03:45:23;;;;;;;13.35;5.18;;;;;;;2.57;76.73;98606.75;4983755;28;20054;-60
2024/02/08 03:47:50;;;;;;;19.95;4.90;;;;;;;2.59;77.35;98596.53;4984800;28;20050;-57
2024/02/08 03:50:19;;;;;;;13.82;5.18;;;;;;;2.61;76.64;98599.09;4985572;28;20590;-53
2024/02/08 03:52:45;;;;;;;8.18;4.18;;;;;;;2.63;77.10;98600.00;4981781;28;20038;-50
2024/02/08 03:55:16;;;;;;;12.13;4.57;;;;;;;2.62;77.46;98593.13;4986686;28;20054;-55
2024/02/08 03:57:48;;;;;;;16.60;4.40;;;;;;;2.63;77.45;98595.72;4984971;28;20082;-58
2024/02/08 04:00:27;;;;;;;12.80;4.18;;;;;;;2.65;77.30;98593.16;4981362;28;20050;-58
2024/02/08 04:02:57;;;;;;;14.10;3.83;;;;;;;2.65;76.99;98588.06;4986590;28;20058;-50
2024/02/08 04:55:24;;;;;;;12.75;4.47;;;;;;;2.92;79.34;98502.97;5021143;28;20158;-57
2024/02/08 04:57:50;;;;;;;8.80;5.35;;;;;;;2.99;78.70;98498.72;5023223;28;20077;-54
2024/02/08 05:00:19;;;;;;;6.45;3.53;;;;;;;2.98;78.63;98504.69;5018154;28;20057;-52
2024/02/08 05:02:45;;;;;;;13.15;5.07;;;;;;;3.00;79.24;98487.63;5023637;28;20713;-54
2024/02/08 05:05:19;;;;;;;8.68;4.45;;;;;;;2.99;79.12;98495.28;5021016;28;20148;-52
2024/02/08 05:07:48;;;;;;;15.35;4.45;;;;;;;3.01;78.61;98479.09;5020471;28;20072;-57
2024/02/08 05:10:18;;;;;;;11.55;3.75;;;;;;;3.02;79.00;98485.94;5019178;28;20727;-55
2024/02/08 05:12:47;;;;;;;18.33;5.05;;;;;;;3.01;78.65;98478.25;5022054;28;20469;-54
2024/02/08 05:15:13;;;;;;;6.47;4.07;;;;;;;3.02;79.41;98478.25;5019492;28;20061;-50
2024/02/08 05:17:40;;;;;;;14.65;4.53;;;;;;;3.02;78.71;98483.38;5022020;28;20052;-57
2024/02/08 05:20:11;;;;;;;18.67;4.60;;;;;;;3.03;79.34;98486.75;5021397;28;20107;-55
2024/02/08 05:22:39;;;;;;;10.63;4.63;;;;;;;3.03;79.51;98477.41;5023441;28;20053;-57
2024/02/08 05:25:10;;;;;;;12.07;3.88;;;;;;;3.04;79.07;98475.72;5007152;28;20062;-52
2024/02/08 05:27:37;;;;;;;11.52;4.38;;;;;;;3.02;79.56;98465.47;5008773;28;20056;-51
2024/02/08 05:30:05;;;;;;;8.63;3.75;;;;;;;3.06;78.91;98466.31;5006576;28;20518;-59
2024/02/08 05:32:35;;;;;;;14.23;4.65;;;;;;;3.04;79.26;98453.53;5007694;28;20053;-50
2024/02/08 05:35:04;;;;;;;14.93;5.57;;;;;;;3.03;79.25;98441.59;5005317;28;20068;-56
2024/02/08 05:37:31;;;;;;;6.15;4.32;;;;;;;3.03;79.20;98433.91;5007637;28;20050;-57
2024/02/08 05:40:00;;;;;;;7.88;5.22;;;;;;;3.04;79.55;98420.25;5007416;28;20054;-60
2024/02/08 05:42:27;;;;;;;9.27;4.47;;;;;;;3.05;78.83;98409.19;4997504;28;20041;-49
2024/02/08 05:45:18;;;;;;;9.10;4.47;;;;;;;3.04;78.99;98407.47;5005394;28;20063;-55
2024/02/08 05:47:42;;;;;;;12.93;3.60;;;;;;;3.01;79.35;98392.13;5007304;28;20056;-54
2024/02/08 05:50:21;;;;;;;16.65;4.38;;;;;;;3.01;79.64;98397.22;5004930;28;20129;-55
2024/02/08 05:52:51;;;;;;;5.78;3.17;;;;;;;2.98;80.28;98396.38;5001196;28;20054;-51
2024/02/08 05:55:19;;;;;;;6.53;4.20;;;;;;;2.96;79.51;98393.81;5006275;28;20065;-53
2024/02/08 05:57:47;;;;;;;10.05;5.47;;;;;;;2.95;80.32;98379.34;5006742;28;20050;-54
2024/02/08 06:00:14;;;;;;;11.98;4.90;;;;;;;2.94;79.66;98368.25;5008297;28;20147;-51
2024/02/08 06:02:41;;;;;;;13.63;4.40;;;;;;;2.91;80.21;98367.41;5004415;28;20527;-54
2024/02/08 06:05:09;;;;;;;13.07;4.93;;;;;;;2.85;80.69;98354.59;5010022;28;20049;-51
2024/02/08 06:07:36;;;;;;;13.45;4.90;;;;;;;2.90;80.81;98350.34;5008972;28;20093;-52
2024/02/08 06:10:22;;;;;;;8.20;3.65;;;;;;;2.83;81.62;98347.78;5001125;28;20594;-54
2024/02/08 06:12:59;;;;;;;11.10;1.92;;;;;;;2.86;80.74;98330.72;5005992;28;20418;-53
2024/02/08 06:15:32;;;;;;;6.47;2.95;;;;;;;2.83;81.03;98316.22;5003572;28;20053;-51
2024/02/08 06:18:07;;;;;;;10.60;5.18;;;;;;;2.88;80.90;98309.44;5005365;28;20053;-49
2024/02/08 06:20:40;;;;;;;12.77;4.68;;;;;;;2.86;81.08;98305.16;5006778;28;20128;-56
2024/02/08 06:28:54;;;;;;;8.85;1.77;;;;;;;2.85;81.62;98303.44;5066574;27;20386;-55
2024/02/08 06:31:29;;;;;;;6.43;2.40;;;;;;;2.90;81.82;98286.41;5022904;28;20057;-53
2024/02/08 06:34:12;;;;;;;8.65;2.65;;;;;;;2.93;81.73;98281.28;5018944;28;20804;-50
2024/02/08 06:36:49;;;;;;;5.30;2.33;;;;;;;2.82;82.83;98279.59;5023825;28;20140;-54
2024/02/08 06:39:28;;;;;;;7.18;2.03;;;;;;;2.83;82.92;98281.28;5020356;28;20460;-52
2024/02/08 06:42:07;;;;;;;9.77;1.95;;;;;;;2.76;82.53;98279.59;5022004;28;20054;-52
2024/02/08 06:47:54;;;;;;;8.30;4.13;;;;;;;2.74;83.42;98275.31;5088934;27;20896;-55
2024/02/08 07:37:25;;;;;;;10.77;5.07;;;;;;;2.70;85.24;98192.66;5044502;28;20135;-50
2024/02/08 07:39:54;;;;;;;7.72;4.38;;;;;;;2.68;85.56;98184.16;5048408;28;20122;-53
2024/02/08 07:42:41;;;;;;;9.27;5.05;;;;;;;2.69;85.02;98183.28;5040600;28;20045;-49
2024/02/08 07:45:12;;;;;;;10.70;6.30;;;;;;;2.73;84.84;98177.31;5036167;28;20633;-48
2024/02/08 07:47:40;;;;;;;10.88;4.63;;;;;;;2.70;84.63;98172.19;5036866;28;20095;-59
2024/02/08 07:50:08;;;;;;;10.40;5.72;;;;;;;2.64;85.38;98164.56;5040118;28;20060;-52
2024/02/08 07:52:57;;;;;;;8.05;5.60;;;;;;;2.67;85.02;98156.88;5049709;28;20057;-57
2024/02/08 07:55:46;;;;;;;9.65;4.93;;;;;;;2.74;85.49;98143.25;5026879;28;20052;-46
2024/02/08 07:58:08;;;;;;;8.95;3.05;;;;;;;2.71;84.73;98117.69;5028777;28;20541;-52
2024/02/08 08:03:17;;;;;;;3.92;1.73;;;;;;;2.68;85.13;98115.13;5037079;27;21161;-54
2024/02/08 08:05:45;;;;;;;5.85;1.60;;;;;;;2.67;85.60;98114.25;5006222;28;20833;-53
2024/02/08 08:11:05;;;;;;;9.05;3.60;;;;;;;2.68;85.71;98123.66;5001877;28;20058;-56
2024/02/08 08:19:07;;;;;;;6.55;2.03;;;;;;;2.68;85.25;98107.44;5004703;27;20423;-54
2024/02/08 08:24:26;;;;;;;8.07;2.80;;;;;;;2.71;84.98;98081.88;5019755;28;20671;-59
2024/02/08 08:27:06;;;;;;;8.68;3.13;;;;;;;2.70;85.40;98081.03;4999085;28;20160;-55
2024/02/08 08:29:42;;;;;;;4.75;2.60;;;;;;;2.72;84.75;98068.25;4999147;28;20054;-51
2024/02/08 08:38:13;;;;;;;4.55;1.95;;;;;;;2.71;85.42;98064.00;5013339;28;20078;-50
2024/02/08 08:40:41;;;;;;;6.95;1.55;;;;;;;2.71;84.59;98061.44;4998760;28;20431;-54
2024/02/08 08:43:10;;;;;;;2.85;1.73;;;;;;;2.65;85.92;98061.44;5003454;28;20578;-48
2024/02/08 08:45:40;;;;;;;8.57;3.00;;;;;;;2.66;85.76;98047.78;5028548;28;20046;-51
2024/02/08 08:48:08;;;;;;;5.18;2.00;;;;;;;2.69;85.10;98037.56;4999067;28;20100;-53
2024/02/08 08:50:34;;;;;;;5.18;2.10;;;;;;;2.66;84.72;98040.13;5001197;28;20078;-56
2024/02/08 08:53:16;;;;;;;5.78;2.22;;;;;;;2.63;85.59;98012.03;5001650;28;20061;-50
2024/02/08 08:55:49;;;;;;;5.05;1.38;;;;;;;2.69;85.42;97996.66;4996240;28;20094;-53
2024/02/08 08:58:17;;;;;;;8.82;1.98;;;;;;;2.71;85.48;98002.63;4999659;28;20046;-54
2024/02/08 09:00:47;;;;;;;6.63;2.67;;;;;;;2.74;84.73;97997.53;5000162;28;20132;-49
2024/02/08 09:03:26;;;;;;;6.45;2.05;;;;;;;2.77;85.29;98010.25;4998329;28;20052;-50
2024/02/08 09:05:57;;;;;;;4.93;2.38;;;;;;;2.74;85.37;98015.41;5001353;28;20076;-55
2024/02/08 09:08:34;;;;;;;4.03;1.92;;;;;;;2.67;85.75;98021.41;4995076;28;20042;-54
2024/02/08 09:11:03;;;;;;;5.43;2.30;;;;;;;2.67;85.31;98014.56;4998769;28;20058;-49
2024/02/08 09:13:30;;;;;;;5.00;1.55;;;;;;;2.72;85.59;98008.59;5001344;28;20406;-53
2024/02/08 09:16:29;;;;;;;3.42;1.90;;;;;;;2.65;85.92;97989.88;4974463;28;20050;-51
2024/02/08 09:21:39;;;;;;;6.18;1.98;;;;;;;2.75;85.92;97981.31;5025155;27;20410;-57
2024/02/08 09:24:07;;;;;;;4.50;1.95;;;;;;;2.76;85.07;97988.13;5011101;28;20060;-58
2024/02/08 09:27:34;;;;;;;4.22;2.05;;;;;;;2.76;85.43;97972.78;5014463;28;20050;-50
2024/02/08 09:29:23;;;;;;;3.15;1.38;;;;;;;2.85;85.08;97960.81;5001159;28;20050;-50
2024/02/08 09:32:14;;;;;;;3.85;1.85;;;;;;;2.81;85.25;97945.47;5016097;28;20054;-54
2024/02/08 09:34:42;;;;;;;7.45;2.47;;;;;;;2.87;85.40;97938.66;5018691;28;20057;-51
2024/02/08 09:37:10;;;;;;;3.10;2.63;;;;;;;2.79;85.45;97939.53;4999335;28;20821;-54
2024/02/08 09:39:53;;;;;;;3.85;1.65;;;;;;;2.82;85.95;97928.44;5000540;28;20082;-57
2024/02/08 09:42:30;;;;;;;3.15;1.80;;;;;;;2.75;86.24;97912.28;5009018;28;20096;-53
2024/02/08 09:45:13;;;;;;;3.88;2.10;;;;;;;2.79;86.08;97893.50;5011100;28;20057;-50
2024/02/08 09:47:51;;;;;;;2.58;1.80;;;;;;;2.78;86.24;97879.03;5020123;28;20104;-57
2024/02/08 09:50:31;;;;;;;8.07;2.40;;;;;;;2.79;86.53;97865.38;5019826;28;20053;-53
2024/02/08 09:53:07;;;;;;;4.85;1.92;;;;;;;2.77;85.84;97861.97;5024459;28;20050;-50
2024/02/08 09:55:34;;;;;;;4.75;1.70;;;;;;;2.84;86.07;97862.81;5013902;28;20050;-54
2024/02/08 09:58:04;;;;;;;7.90;2.55;;;;;;;2.91;85.90;97853.38;4995351;28;20515;-52
2024/02/08 10:00:34;;;;;;;4.05;2.17;;;;;;;2.95;86.06;97835.44;4997167;28;20050;-52
2024/02/08 10:03:05;;;;;;;3.05;2.00;;;;;;;2.93;85.61;97826.06;4997326;28;20407;-53
2024/02/08 10:05:50;;;;;;;2.92;1.88;;;;;;;2.89;86.05;97830.38;4993896;28;20050;-58
2024/02/08 10:08:38;;;;;;;2.70;1.38;;;;;;;2.83;86.66;97836.38;4999823;28;20455;-57
2024/02/08 10:11:23;;;;;;;3.65;2.17;;;;;;;2.90;85.93;97805.66;5015900;28;20054;-58
2024/02/08 10:14:01;;;;;;;2.90;1.77;;;;;;;2.92;86.51;97793.69;5010696;28;20053;-51
2024/02/08 10:16:29;;;;;;;2.65;1.75;;;;;;;2.93;85.61;97800.50;4996000;28;20077;-55
2024/02/08 10:19:16;;;;;;;6.63;3.25;;;;;;;2.93;85.96;97785.16;4994807;28;20446;-57
2024/02/08 10:21:44;;;;;;;4.07;2.30;;;;;;;2.96;86.44;97785.13;4991622;28;20423;-48
2024/02/08 10:24:25;;;;;;;8.35;2.47;;;;;;;2.89;86.60;97778.38;4991046;28;20145;-49
2024/02/08 10:26:58;;;;;;;3.33;2.25;;;;;;;2.89;86.29;97756.22;4994268;28;20050;-59
2024/02/08 10:29:31;;;;;;;3.10;2.00;;;;;;;2.87;86.40;97744.31;4994727;28;20129;-57
2024/02/08 10:31:59;;;;;;;8.30;2.25;;;;;;;2.94;86.82;97728.88;4987591;28;20143;-54
2024/02/08 10:34:39;;;;;;;5.50;2.65;;;;;;;2.87;86.38;97716.19;4986540;28;20431;-51
2024/02/08 10:37:46;;;;;;;4.20;3.78;;;;;;;2.85;86.73;97711.09;4977614;28;20690;-57
2024/02/08 10:40:23;;;;;;;5.85;2.55;;;;;;;2.85;86.70;97710.22;5002555;28;20049;-55
2024/02/08 10:42:50;;;;;;;2.63;1.95;;;;;;;2.86;86.65;97697.44;4970286;28;20097;-54
2024/02/08 10:45:19;;;;;;;4.93;2.25;;;;;;;2.90;86.53;97693.97;4973784;28;20496;-56
2024/02/08 10:47:47;;;;;;;4.35;2.30;;;;;;;2.90;86.49;97693.16;4976455;28;20594;-57
2024/02/08 10:50:27;;;;;;;8.13;2.85;;;;;;;2.85;86.17;97677.00;4983098;28;20121;-54
2024/02/08 10:53:00;;;;;;;2.88;1.83;;;;;;;2.89;86.53;97670.97;4979445;28;20051;-52
2024/02/08 10:55:36;;;;;;;7.75;2.28;;;;;;;2.93;86.38;97670.94;4981556;28;20050;-53
2024/02/08 11:06:26;;;;;;;4.07;1.90;;;;;;;2.80;86.39;97656.56;5016926;28;20383;-55
2024/02/08 11:11:51;;;;;;;7.97;4.70;;;;;;;2.73;86.95;97645.56;5021636;28;20049;-50
2024/02/08 11:14:19;;;;;;;6.43;3.00;;;;;;;2.72;87.53;97643.88;5037887;28;20433;-50
2024/02/08 11:16:51;;;;;;;7.35;5.32;;;;;;;2.65;87.54;97652.47;5038632;28;20060;-54
2024/02/08 11:19:19;;;;;;;6.45;3.55;;;;;;;2.65;87.12;97638.00;5037419;28;20049;-53
2024/02/08 11:21:49;;;;;;;6.57;4.65;;;;;;;2.64;87.60;97645.66;5034713;28;20053;-48
2024/02/08 11:24:27;;;;;;;5.68;5.07;;;;;;;2.62;87.20;97632.91;5040341;28;20059;-51
2024/02/08 11:26:58;;;;;;;5.65;4.60;;;;;;;2.63;87.21;97644.81;5036306;28;20041;-52
2024/02/08 11:29:27;;;;;;;5.40;3.53;;;;;;;2.64;87.24;97631.16;5038118;28;20060;-50
2024/02/08 11:31:56;;;;;;;4.57;3.25;;;;;;;2.64;87.90;97622.66;5036568;28;20108;-53
2024/02/08 11:34:24;;;;;;;5.43;2.60;;;;;;;2.71;87.56;97629.41;5038898;28;20055;-51
2024/02/08 11:36:52;;;;;;;4.97;2.72;;;;;;;2.76;87.04;97608.91;5036071;28;20142;-55
2024/02/08 11:39:29;;;;;;;4.72;4.28;;;;;;;2.76;87.56;97603.78;5039281;28;20057;-52
2024/02/08 11:42:05;;;;;;;4.68;3.10;;;;;;;2.68;87.96;97598.75;5038966;28;20151;-49
2024/02/08 11:44:43;;;;;;;3.83;3.00;;;;;;;2.74;87.44;97591.03;5038030;28;20568;-51
2024/02/08 11:47:18;;;;;;;3.65;1.77;;;;;;;2.73;87.33;97584.22;5038250;28;20414;-50
2024/02/08 11:50:00;;;;;;;6.25;4.05;;;;;;;2.71;87.42;97580.84;5036507;28;20129;-54
2024/02/08 11:52:29;;;;;;;6.40;3.53;;;;;;;2.77;87.19;97596.09;5037941;28;20045;-53
2024/02/08 11:55:05;;;;;;;4.68;4.28;;;;;;;2.72;87.06;97592.75;5034970;28;20083;-55
2024/02/08 11:57:36;;;;;;;5.93;3.35;;;;;;;2.79;87.68;97586.72;5035366;28;20049;-48
2024/02/08 12:00:15;;;;;;;3.65;2.65;;;;;;;2.85;87.55;97582.38;5031783;28;20065;-52
2024/02/08 12:05:25;;;;;;;4.15;3.40;;;;;;;2.79;87.87;97563.72;5058412;27;20403;-44
2024/02/08 12:07:53;;;;;;;4.53;2.47;;;;;;;2.82;87.98;97558.56;5015697;28;20517;-51
2024/02/08 12:10:22;;;;;;;4.50;3.40;;;;;;;2.83;87.22;97559.41;5019210;28;20054;-51
2024/02/08 12:12:53;;;;;;;5.03;3.97;;;;;;;2.88;87.42;97572.13;5012890;28;20053;-51
2024/02/08 12:15:21;;;;;;;8.95;5.18;;;;;;;2.87;88.05;97555.09;5023349;28;20163;-59
2024/02/08 12:17:52;;;;;;;7.55;4.50;;;;;;;2.94;87.55;97561.84;5026078;28;20491;-53
2024/02/08 12:20:19;;;;;;;6.28;4.68;;;;;;;2.91;87.27;97556.75;5016867;28;20045;-49
2024/02/08 12:22:54;;;;;;;7.25;4.82;;;;;;;2.85;87.85;97565.34;5024304;28;20049;-53
2024/02/08 12:25:21;;;;;;;7.32;5.53;;;;;;;2.82;87.60;97543.22;5021375;28;20064;-53
2024/02/08 12:27:51;;;;;;;6.93;3.95;;;;;;;2.88;87.61;97557.66;5023489;28;20056;-55
2024/02/08 12:30:23;;;;;;;7.70;5.00;;;;;;;2.87;88.13;97538.03;5015867;28;20136;-48
2024/02/08 12:32:52;;;;;;;6.57;4.32;;;;;;;2.91;88.34;97531.19;5016957;28;20050;-54
2024/02/08 12:35:21;;;;;;;5.47;4.20;;;;;;;2.96;88.08;97529.41;5028310;28;20131;-59
2024/02/08 12:37:49;;;;;;;5.45;4.20;;;;;;;2.91;87.88;97526.09;5027681;28;20049;-50
2024/02/08 12:40:17;;;;;;;5.07;4.13;;;;;;;2.97;87.90;97520.88;5016130;28;20064;-47
2024/02/08 12:42:46;;;;;;;4.78;2.63;;;;;;;2.96;88.22;97503.84;5015470;28;20513;-48
2024/02/08 12:45:15;;;;;;;7.50;5.35;;;;;;;3.00;88.22;97509.78;5018556;28;20104;-52
2024/02/08 12:47:51;;;;;;;6.38;3.78;;;;;;;3.04;87.97;97496.91;5021864;28;20053;-48
2024/02/08 12:50:21;;;;;;;5.82;3.83;;;;;;;3.03;87.36;97500.34;5019529;28;20675;-52
2024/02/08 12:52:55;;;;;;;4.30;3.90;;;;;;;3.02;88.15;97491.00;5019359;28;20049;-48
2024/02/08 12:55:23;;;;;;;5.55;3.78;;;;;;;3.13;87.15;97489.97;5021320;28;20088;-54
2024/02/08 12:57:57;;;;;;;3.17;2.45;;;;;;;3.06;87.48;97487.53;5018783;28;20410;-52
2024/02/08 13:00:25;;;;;;;4.95;4.25;;;;;;;3.08;87.85;97472.97;5022774;28;20057;-49
2024/02/08 13:02:54;;;;;;;7.07;3.53;;;;;;;3.13;87.79;97479.75;5018241;28;20077;-50
2024/02/08 13:05:28;;;;;;;6.05;4.40;;;;;;;3.14;86.97;97472.06;5022352;28;20514;-53
2024/02/08 13:07:58;;;;;;;5.18;4.00;;;;;;;3.17;87.18;97471.16;5018860;28;20137;-52
2024/02/08 13:10:26;;;;;;;4.15;3.40;;;;;;;3.16;87.39;97456.69;5021834;28;20049;-52
2024/02/08 13:12:59;;;;;;;5.07;3.35;;;;;;;3.24;86.90;97470.19;5019471;28;20049;-56
2024/02/08 13:15:31;;;;;;;4.20;3.45;;;;;;;3.26;87.25;97462.50;5011972;28;20108;-58
2024/02/08 13:17:58;;;;;;;4.20;3.30;;;;;;;3.31;86.69;97456.47;5011753;28;20053;-55
2024/02/08 13:20:25;;;;;;;5.07;4.57;;;;;;;3.27;86.82;97461.66;5002045;28;20055;-50
2024/02/08 13:22:52;;;;;;;6.53;3.88;;;;;;;3.36;87.13;97450.41;5002570;28;20046;-50
2024/02/08 13:25:19;;;;;;;5.38;4.82;;;;;;;3.32;87.00;97450.47;5006418;28;20042;-51
2024/02/08 13:27:48;;;;;;;3.67;1.63;;;;;;;3.31;86.75;97442.84;5007318;28;20427;-50
2024/02/08 13:30:15;;;;;;;5.45;4.10;;;;;;;3.36;86.65;97440.19;5001997;28;20086;-52
2024/02/08 13:32:49;;;;;;;4.90;3.72;;;;;;;3.34;87.14;97423.16;5006667;28;20057;-60
2024/02/08 13:35:18;;;;;;;6.50;6.00;;;;;;;3.33;87.27;97423.19;5015123;28;20583;-50
2024/02/08 13:37:49;;;;;;;4.55;2.72;;;;;;;3.42;86.86;97419.63;5006617;28;20512;-51
2024/02/08 13:40:18;;;;;;;4.63;4.03;;;;;;;3.48;86.62;97424.66;5008439;28;20068;-53
2024/02/08 13:42:47;;;;;;;5.82;3.95;;;;;;;3.45;86.91;97424.72;5006838;28;20049;-54
2024/02/08 13:45:24;;;;;;;7.45;4.32;;;;;;;3.49;86.42;97421.22;5004155;28;20061;-51
2024/02/08 13:47:56;;;;;;;6.75;4.40;;;;;;;3.56;86.44;97422.81;5003651;28;20058;-50
2024/02/08 13:50:28;;;;;;;4.07;3.05;;;;;;;3.53;86.57;97416.88;5004300;28;20387;-54
2024/02/08 13:52:59;;;;;;;6.20;4.25;;;;;;;3.58;86.22;97400.59;5007906;28;20053;-52
2024/02/08 13:55:31;;;;;;;5.95;5.45;;;;;;;3.60;86.41;97398.84;5004268;28;20042;-53
2024/02/08 13:58:00;;;;;;;4.75;4.10;;;;;;;3.63;86.78;97397.09;5002194;28;20076;-52
2024/02/08 14:00:30;;;;;;;4.07;3.10;;;;;;;3.66;86.02;97387.66;5006944;28;20049;-56
2024/02/08 14:03:00;;;;;;;4.97;3.60;;;;;;;3.69;86.09;97392.69;5003610;28;20049;-51
2024/02/08 14:05:29;;;;;;;5.32;4.78;;;;;;;3.68;86.54;97385.06;4995097;28;20077;-60
2024/02/08 14:07:57;;;;;;;4.55;4.15;;;;;;;3.67;86.43;97388.50;4999041;28;20141;-54
2024/02/08 14:10:31;;;;;;;5.28;3.75;;;;;;;3.71;85.90;97395.25;5001604;28;20057;-48
2024/02/08 14:12:59;;;;;;;5.72;4.40;;;;;;;3.72;86.21;97382.41;5009535;28;20054;-54
2024/02/08 14:15:31;;;;;;;4.55;3.78;;;;;;;3.71;86.11;97374.75;4996786;28;20171;-48
2024/02/08 14:18:10;;;;;;;3.83;3.45;;;;;;;3.74;86.38;97374.72;5017399;28;20045;-55
2024/02/08 14:20:52;;;;;;;4.88;3.47;;;;;;;3.74;85.85;97369.59;5017395;28;20096;-55
2024/02/08 14:23:29;;;;;;;4.63;3.53;;;;;;;3.76;86.00;97377.25;5015207;28;20140;-51